Time;durP1;ratioP1;P1;durP2;ratioP2;P2;SDS_P1;SDS_P2;PMS_P1;PMS_P2;Temp;Humidity;BMP_temperature;BMP_pressure;BME280_temperature;BME280_humidity;BME280_pressure;Samples;Min_cycle;Max_cycle;Signal;HPM_P1;HPM_P2
2021/09/17 00:00:46;;;;;;;;;;;;;;;15.06;100.00;100561.19;5091831;28;20032;-68
2021/09/17 00:03:13;;;;;;;;;;;;;;;15.06;100.00;100568.53;5091461;28;20027;-68
2021/09/17 00:05:40;;;;;;;;;;;;;;;15.05;100.00;100567.66;5091704;28;20019;-68
2021/09/17 00:08:06;;;;;;;;;;;;;;;15.05;100.00;100564.91;5091500;28;20272;-68
2021/09/17 00:10:32;;;;;;;;;;;;;;;15.04;100.00;100557.72;5091645;28;19964;-68
2021/09/17 00:12:59;;;;;;;;;;;;;;;15.05;100.00;100555.88;5091841;28;20310;-68
2021/09/17 00:15:25;;;;;;;;;;;;;;;15.03;100.00;100552.41;5091605;28;19931;-68
2021/09/17 00:17:51;;;;;;;;;;;;;;;15.02;100.00;100543.38;5091404;28;20030;-68
2021/09/17 00:20:19;;;;;;;;;;;;;;;15.02;100.00;100548.00;5091392;28;20314;-68
2021/09/17 00:22:46;;;;;;;;;;;;;;;15.02;100.00;100551.56;5091567;28;19950;-68
2021/09/17 00:25:12;;;;;;;;;;;;;;;14.99;100.00;100543.69;5091689;28;19935;-68
2021/09/17 00:27:38;;;;;;;;;;;;;;;14.99;100.00;100534.63;5091195;28;19932;-68
2021/09/17 00:30:05;;;;;;;;;;;;;;;14.98;100.00;100544.72;5091555;28;19930;-68
2021/09/17 00:32:32;;;;;;;;;;;;;;;14.97;100.00;100539.41;5073125;28;19924;-68
2021/09/17 00:34:58;;;;;;;;;;;;;;;14.96;100.00;100540.41;5091482;28;19932;-68
2021/09/17 00:37:26;;;;;;;;;;;;;;;14.99;100.00;100540.09;5091421;28;19930;-68
2021/09/17 00:39:52;;;;;;;;;;;;;;;14.99;100.00;100540.09;5091439;28;19989;-70
2021/09/17 00:42:18;;;;;;;;;;;;;;;14.98;100.00;100533.78;5091452;28;19928;-69
2021/09/17 00:44:45;;;;;;;;;;;;;;;14.99;100.00;100540.09;5091205;28;19924;-68
2021/09/17 00:47:11;;;;;;;;;;;;;;;14.99;100.00;100534.63;5091281;28;19930;-68
2021/09/17 00:49:37;;;;;;;;;;;;;;;14.98;100.00;100532.91;5092654;28;20019;-68
2021/09/17 00:52:04;;;;;;;;;;;;;;;14.97;100.00;100536.69;5095324;28;20708;-68
2021/09/17 00:54:34;;;;;;;;;;;;;;;14.95;100.00;100535.97;5095237;28;20016;-68
2021/09/17 00:57:00;;;;;;;;;;;;;;;14.96;100.00;100535.81;5094939;28;19981;-68
2021/09/17 00:59:26;;;;;;;;;;;;;;;14.95;100.00;100533.22;5095139;28;20474;-68
2021/09/17 01:01:53;;;;;;;;;;;;;;;14.96;100.00;100532.22;5094198;28;20018;-68
2021/09/17 01:04:19;;;;;;;;;;;;;;;14.96;100.00;100532.22;5095162;28;19938;-68
2021/09/17 01:06:46;;;;;;;;;;;;;;;14.94;100.00;100526.91;5094499;28;19924;-68
2021/09/17 01:09:13;;;;;;;;;;;;;;;14.94;100.00;100534.25;5076928;28;20400;-68
2021/09/17 01:11:40;;;;;;;;;;;;;;;14.94;100.00;100532.38;5094874;28;19928;-68
2021/09/17 01:14:08;;;;;;;;;;;;;;;14.94;100.00;100523.31;5094661;28;20011;-68
2021/09/17 01:16:34;;;;;;;;;;;;;;;14.91;100.00;100521.75;5076725;28;19962;-68
2021/09/17 01:19:00;;;;;;;;;;;;;;;14.93;100.00;100527.06;5094623;28;19928;-68
2021/09/17 01:21:28;;;;;;;;;;;;;;;14.92;100.00;100528.09;5094911;28;19931;-68
2021/09/17 01:23:54;;;;;;;;;;;;;;;14.92;100.00;100525.34;5094533;28;20367;-68
2021/09/17 01:26:21;;;;;;;;;;;;;;;14.92;100.00;100525.34;5094520;28;20015;-68
2021/09/17 01:28:47;;;;;;;;;;;;;;;14.91;100.00;100519.00;5094320;28;19930;-68
2021/09/17 01:31:13;;;;;;;;;;;;;;;14.90;100.00;100525.53;5094422;28;20358;-68
2021/09/17 01:36:58;;;;;;;;;;;;;;;14.91;100.00;100519.00;5062905;23;19933;-63
2021/09/17 01:39:26;;;;;;;;;;;;;;;14.90;100.00;100520.06;4971106;28;19934;-64
2021/09/17 01:41:53;;;;;;;;;;;;;;;14.90;100.00;100522.78;4967674;28;19981;-64
2021/09/17 01:44:19;;;;;;;;;;;;;;;14.87;100.00;100521.22;4975798;28;19958;-64
2021/09/17 01:46:45;;;;;;;;;;;;;;;14.88;100.00;100516.59;4975362;28;19926;-64
2021/09/17 01:49:11;;;;;;;;;;;;;;;14.86;100.00;100518.66;4975470;28;19976;-64
2021/09/17 01:51:38;;;;;;;;;;;;;;;14.87;100.00;100520.34;4975839;28;20021;-64
2021/09/17 01:54:05;;;;;;;;;;;;;;;14.86;100.00;100519.50;4975552;28;19932;-64
2021/09/17 01:56:32;;;;;;;;;;;;;;;14.84;100.00;100516.06;4975200;28;19932;-64
2021/09/17 01:58:59;;;;;;;;;;;;;;;14.85;100.00;100511.47;4975284;28;19936;-64
2021/09/17 02:01:25;;;;;;;;;;;;;;;14.83;100.00;100508.91;4974228;28;19937;-64
2021/09/17 02:03:51;;;;;;;;;;;;;;;14.81;100.00;100510.06;4975338;28;19926;-64
2021/09/17 02:06:19;;;;;;;;;;;;;;;14.81;100.00;100513.66;4974792;28;20501;-64
2021/09/17 02:08:46;;;;;;;;;;;;;;;14.79;100.00;100510.22;4975161;28;20312;-65
2021/09/17 02:11:12;;;;;;;;;;;;;;;14.79;100.00;100518.44;4975067;28;20034;-64
2021/09/17 02:13:40;;;;;;;;;;;;;;;14.78;100.00;100511.25;4975432;28;20363;-64
2021/09/17 02:16:06;;;;;;;;;;;;;;;14.78;100.00;100505.78;4974755;28;20021;-64
2021/09/17 02:18:32;;;;;;;;;;;;;;;14.78;100.00;100511.25;4975377;28;19932;-64
2021/09/17 02:20:59;;;;;;;;;;;;;;;14.77;100.00;100505.94;4975001;28;19937;-63
2021/09/17 02:23:25;;;;;;;;;;;;;;;14.75;100.00;100500.59;4974919;28;20369;-63
2021/09/17 02:25:51;;;;;;;;;;;;;;;14.73;100.00;100503.50;4974837;28;20029;-63
2021/09/17 02:28:18;;;;;;;;;;;;;;;14.71;100.00;100499.22;4974650;28;20020;-63
2021/09/17 02:30:45;;;;;;;;;;;;;;;14.69;100.00;100503.97;4975005;28;19932;-63
2021/09/17 02:33:12;;;;;;;;;;;;;;;14.67;100.00;100506.88;4973486;28;19929;-63
2021/09/17 02:35:38;;;;;;;;;;;;;;;14.64;100.00;100503.59;4974742;28;19930;-63
2021/09/17 02:38:04;;;;;;;;;;;;;;;14.64;100.00;100500.84;4974351;28;19926;-64
2021/09/17 02:40:31;;;;;;;;;;;;;;;14.62;100.00;100494.66;4974724;28;20001;-64
2021/09/17 02:42:57;;;;;;;;;;;;;;;14.60;100.00;100502.16;4974893;28;19926;-64
2021/09/17 02:45:24;;;;;;;;;;;;;;;14.57;100.00;100506.91;4973279;28;20304;-64
2021/09/17 02:47:51;;;;;;;;;;;;;;;14.58;100.00;100499.59;4974364;28;19933;-64
2021/09/17 02:50:18;;;;;;;;;;;;;;;14.59;100.00;100500.44;4974331;28;20026;-64
2021/09/17 02:52:44;;;;;;;;;;;;;;;14.59;100.00;100490.38;4973541;28;19948;-64
2021/09/17 02:55:11;;;;;;;;;;;;;;;14.59;100.00;100497.69;4974323;28;20037;-68
2021/09/17 02:57:37;;;;;;;;;;;;;;;14.58;100.00;100494.13;4973880;28;19926;-67
2021/09/17 03:00:04;;;;;;;;;;;;;;;14.59;100.00;100489.50;4974307;28;19957;-68
2021/09/17 03:02:30;;;;;;;;;;;;;;;14.57;100.00;100489.66;4974131;28;20008;-67
2021/09/17 03:04:58;;;;;;;;;;;;;;;14.56;100.00;100480.63;4974248;28;19950;-68
2021/09/17 03:07:24;;;;;;;;;;;;;;;14.57;100.00;100476.84;4973649;28;19926;-68
2021/09/17 03:09:51;;;;;;;;;;;;;;;14.55;100.00;100481.63;4973817;28;20029;-68
2021/09/17 03:12:17;;;;;;;;;;;;;;;14.56;100.00;100475.16;4973603;28;19970;-68
2021/09/17 03:14:43;;;;;;;;;;;;;;;14.55;100.00;100478.91;4973870;28;20024;-68
2021/09/17 03:17:09;;;;;;;;;;;;;;;14.53;100.00;100480.91;4973770;28;20360;-68
2021/09/17 03:19:36;;;;;;;;;;;;;;;14.51;100.00;100482.09;4974192;28;19930;-68
2021/09/17 03:22:04;;;;;;;;;;;;;;;14.47;100.00;100481.56;4973815;28;20436;-68
2021/09/17 03:24:31;;;;;;;;;;;;;;;14.41;100.00;100487.63;4973704;28;19930;-69
2021/09/17 03:26:57;;;;;;;;;;;;;;;14.36;100.00;100477.19;4973714;28;20447;-69
2021/09/17 03:29:23;;;;;;;;;;;;;;;14.35;100.00;100477.31;4973938;28;19954;-69
2021/09/17 03:31:50;;;;;;;;;;;;;;;14.33;100.00;100473.91;4973602;28;20021;-69
2021/09/17 03:34:16;;;;;;;;;;;;;;;14.30;100.00;100468.78;4973654;28;19926;-67
2021/09/17 03:36:42;;;;;;;;;;;;;;;14.30;100.00;100471.50;4973134;28;19974;-67
2021/09/17 03:39:11;;;;;;;;;;;;;;;14.28;100.00;100457.97;4973514;28;19926;-68
2021/09/17 03:41:37;;;;;;;;;;;;;;;14.26;100.00;100461.88;4972287;28;19926;-68
2021/09/17 03:44:03;;;;;;;;;;;;;;;14.24;100.00;100464.78;4973415;28;20385;-68
2021/09/17 03:46:30;;;;;;;;;;;;;;;14.19;100.00;100462.53;4973290;28;19926;-68
2021/09/17 03:48:56;;;;;;;;;;;;;;;14.18;100.00;100470.88;4973256;28;20021;-68
2021/09/17 03:51:23;;;;;;;;;;;;;;;14.13;100.00;100454.94;4973301;28;20032;-68
2021/09/17 03:53:50;;;;;;;;;;;;;;;14.09;100.00;100464.44;4973197;28;19936;-68
2021/09/17 03:56:18;;;;;;;;;;;;;;;14.05;100.00;100465.78;4988092;28;19965;-68
2021/09/17 03:58:44;;;;;;;;;;;;;;;14.01;100.00;100465.22;4973171;28;19965;-68
2021/09/17 04:01:10;;;;;;;;;;;;;;;14.00;100.00;100457.19;4973300;28;20013;-68
2021/09/17 04:03:37;;;;;;;;;;;;;;;13.99;100.00;100460.91;4973257;28;19927;-67
2021/09/17 04:06:03;;;;;;;;;;;;;;;13.93;100.00;100467.84;4972802;28;20461;-68
2021/09/17 04:08:29;;;;;;;;;;;;;;;13.90;100.00;100466.28;4972973;28;20029;-67
2021/09/17 04:10:56;;;;;;;;;;;;;;;13.85;100.00;100476.78;4972986;28;19946;-68
2021/09/17 04:13:23;;;;;;;;;;;;;;;13.80;100.00;100472.81;4972994;28;20016;-68
2021/09/17 04:15:49;;;;;;;;;;;;;;;13.78;100.00;100472.13;4972890;28;19966;-68
2021/09/17 04:18:16;;;;;;;;;;;;;;;13.75;100.00;100470.56;4972691;28;19927;-67
2021/09/17 04:20:42;;;;;;;;;;;;;;;13.72;100.00;100468.97;4973083;28;19926;-67
2021/09/17 04:23:08;;;;;;;;;;;;;;;13.70;100.00;100468.25;4973094;28;19970;-68
2021/09/17 04:25:35;;;;;;;;;;;;;;;13.72;100.00;100473.56;4976166;28;19926;-68
2021/09/17 04:28:01;;;;;;;;;;;;;;;13.69;100.00;100472.00;4976496;28;19927;-67
2021/09/17 04:30:29;;;;;;;;;;;;;;;13.68;100.00;100477.59;4977018;28;19926;-68
2021/09/17 04:32:55;;;;;;;;;;;;;;;13.61;100.00;100469.16;4976946;28;20028;-68
2021/09/17 04:35:22;;;;;;;;;;;;;;;13.63;100.00;100475.34;4976732;28;20037;-68
2021/09/17 04:37:51;;;;;;;;;;;;;;;13.61;100.00;100468.31;4976544;28;19926;-64
2021/09/17 04:40:17;;;;;;;;;;;;;;;13.59;100.00;100481.22;4976642;28;20368;-65
2021/09/17 04:42:44;;;;;;;;;;;;;;;13.57;100.00;100478.66;4976621;28;19930;-65
2021/09/17 04:45:11;;;;;;;;;;;;;;;13.57;100.00;100478.66;4976093;28;20289;-65
2021/09/17 04:47:38;;;;;;;;;;;;;;;13.58;100.00;100480.38;4976346;28;19952;-65
2021/09/17 04:50:06;;;;;;;;;;;;;;;13.59;100.00;100475.78;4976238;28;20016;-64
2021/09/17 04:52:32;;;;;;;;;;;;;;;13.62;100.00;100481.81;4976959;28;19930;-64
2021/09/17 04:54:59;;;;;;;;;;;;;;;13.63;100.00;100482.66;4976554;28;20032;-64
2021/09/17 04:57:26;;;;;;;;;;;;;;;13.63;100.00;100494.44;4974997;28;20029;-64
2021/09/17 04:59:52;;;;;;;;;;;;;;;13.51;100.00;100491.03;4976108;28;19946;-64
2021/09/17 05:02:18;;;;;;;;;;;;;;;13.42;100.00;100497.38;4976075;28;20021;-65
2021/09/17 05:04:46;;;;;;;;;;;;;;;13.32;100.00;100501.97;4976266;28;20020;-65
2021/09/17 05:07:12;;;;;;;;;;;;;;;13.19;100.00;100503.16;4975768;28;20377;-65
2021/09/17 05:09:39;;;;;;;;;;;;;;;13.14;100.00;100513.63;4976082;28;20021;-65
2021/09/17 05:12:05;;;;;;;;;;;;;;;13.11;100.00;100505.75;4976128;28;19926;-64
2021/09/17 05:14:31;;;;;;;;;;;;;;;13.09;100.00;100510.47;4976040;28;20017;-64
2021/09/17 05:16:58;;;;;;;;;;;;;;;13.08;100.00;100514.22;4975863;28;20029;-64
2021/09/17 05:19:25;;;;;;;;;;;;;;;13.07;100.00;100516.09;4975926;28;19926;-64
2021/09/17 05:21:53;;;;;;;;;;;;;;;13.09;100.00;100510.47;4976109;28;20282;-64
2021/09/17 05:24:19;;;;;;;;;;;;;;;13.08;100.00;100514.22;4975643;28;20313;-64
2021/09/17 05:26:46;;;;;;;;;;;;;;;13.09;100.00;100512.34;4975386;28;19973;-65
2021/09/17 05:29:12;;;;;;;;;;;;;;;13.12;100.00;100509.31;4974427;28;19926;-64
2021/09/17 05:31:39;;;;;;;;;;;;;;;13.12;100.00;100504.75;4975590;28;19969;-65
2021/09/17 05:34:05;;;;;;;;;;;;;;;13.19;100.00;100508.59;4975699;28;19930;-65
2021/09/17 05:36:31;;;;;;;;;;;;;;;13.18;100.00;100503.31;4975240;28;19926;-65
2021/09/17 05:38:59;;;;;;;;;;;;;;;13.20;100.00;100498.53;4975482;28;19926;-65
2021/09/17 05:41:25;;;;;;;;;;;;;;;13.19;100.00;100496.84;4975384;28;20037;-65
2021/09/17 05:43:52;;;;;;;;;;;;;;;13.23;100.00;100504.56;4975656;28;19926;-65
2021/09/17 05:46:18;;;;;;;;;;;;;;;13.25;100.00;100500.84;4975094;28;19926;-64
2021/09/17 05:48:44;;;;;;;;;;;;;;;13.26;100.00;100503.41;4975226;28;19926;-65
2021/09/17 05:51:11;;;;;;;;;;;;;;;13.30;100.00;100506.72;4975190;28;20017;-64
2021/09/17 05:53:37;;;;;;;;;;;;;;;13.33;100.00;100503.69;4975359;28;19926;-64
2021/09/17 05:56:05;;;;;;;;;;;;;;;13.33;100.00;100507.25;4975031;28;20304;-65
2021/09/17 05:58:32;;;;;;;;;;;;;;;13.39;100.00;100508.59;4975015;28;20024;-70
2021/09/17 06:00:58;;;;;;;;;;;;;;;13.42;100.00;100494.66;4975141;28;19976;-70
2021/09/17 06:03:24;;;;;;;;;;;;;;;13.51;100.00;100501.09;4974999;28;20033;-70
2021/09/17 06:05:51;;;;;;;;;;;;;;;13.53;100.00;100501.78;4974772;28;20401;-70
2021/09/17 06:08:17;;;;;;;;;;;;;;;13.50;100.00;100499.38;4974874;28;19950;-70
2021/09/17 06:10:44;;;;;;;;;;;;;;;13.50;100.00;100496.63;4975196;28;20365;-70
2021/09/17 06:13:13;;;;;;;;;;;;;;;13.58;100.00;100502.19;4974862;28;19926;-70
2021/09/17 06:15:39;;;;;;;;;;;;;;;13.63;100.00;100497.16;4974662;28;19926;-70
2021/09/17 06:18:05;;;;;;;;;;;;;;;13.62;100.00;100492.72;4974696;28;19965;-70
2021/09/17 06:20:32;;;;;;;;;;;;;;;13.68;100.00;100502.16;4974878;28;20024;-70
2021/09/17 06:22:58;;;;;;;;;;;;;;;13.64;100.00;100498.00;4974710;28;20032;-64
2021/09/17 06:25:25;;;;;;;;;;;;;;;13.66;100.00;100506.91;4974532;28;19962;-64
2021/09/17 06:27:51;;;;;;;;;;;;;;;13.69;100.00;100509.31;4974347;28;19973;-64
2021/09/17 06:30:20;;;;;;;;;;;;;;;13.74;100.00;100509.75;4974403;28;19989;-65
2021/09/17 06:32:46;;;;;;;;;;;;;;;13.79;100.00;100509.28;4974447;28;19980;-64
2021/09/17 06:35:13;;;;;;;;;;;;;;;13.79;100.00;100510.16;4974226;28;19968;-65
2021/09/17 06:37:46;;;;;;;;;;;;;;;13.89;100.00;100505.47;4974253;28;20017;-65
2021/09/17 06:40:13;;;;;;;;;;;;;;;13.90;100.00;100500.91;4988869;28;20309;-65
2021/09/17 06:42:40;;;;;;;;;;;;;;;13.95;100.00;100497.72;4974436;28;20400;-64
2021/09/17 06:45:07;;;;;;;;;;;;;;;14.03;100.00;100500.53;4973832;28;19965;-65
2021/09/17 06:47:41;;;;;;;;;;;;;;;13.98;100.00;100490.09;4973449;28;20029;-64
2021/09/17 06:50:08;;;;;;;;;;;;;;;14.06;100.00;100492.06;4973963;28;20029;-65
2021/09/17 06:52:34;;;;;;;;;;;;;;;14.13;100.00;100492.31;4974118;28;19985;-65
2021/09/17 06:55:00;;;;;;;;;;;;;;;14.18;100.00;100492.69;4956968;28;20029;-65
2021/09/17 06:57:27;;;;;;;;;;;;;;;14.15;100.00;100499.31;4954478;28;20206;-65
2021/09/17 06:59:53;;;;;;;;;;;;;;;14.21;100.00;100503.31;4954659;28;20013;-65
2021/09/17 07:02:19;;;;;;;;;;;;;;;14.15;100.00;100496.59;4954811;28;19986;-64
2021/09/17 07:04:47;;;;;;;;;;;;;;;14.16;100.00;100498.31;4954576;29;19997;-65
2021/09/17 07:07:13;;;;;;;;;;;;;;;14.13;100.00;100498.59;4954577;28;19949;-64
2021/09/17 07:09:39;;;;;;;;;;;;;;;14.16;100.00;100508.34;4954575;28;19926;-65
2021/09/17 07:12:06;;;;;;;;;;;;;;;14.23;100.00;100502.13;4954636;29;20029;-65
2021/09/17 07:14:32;;;;;;;;;;;;;;;14.30;100.00;100504.25;4954385;28;19930;-64
2021/09/17 07:16:58;;;;;;;;;;;;;;;14.30;100.00;100504.25;4954299;28;20342;-65
2021/09/17 07:19:26;;;;;;;;;;;;;;;14.26;100.00;100506.44;4954253;28;20300;-65
2021/09/17 07:21:54;;;;;;;;;;;;;;;14.26;100.00;100500.97;4954617;28;19996;-65
2021/09/17 07:24:20;;;;;;;;;;;;;;;14.17;100.00;100507.34;4954145;28;20343;-65
2021/09/17 07:26:46;;;;;;;;;;;;;;;14.14;100.00;100513.13;4954233;28;20021;-64
2021/09/17 07:29:12;;;;;;;;;;;;;;;14.17;100.00;100502.75;4937016;29;19926;-65
2021/09/17 07:31:39;;;;;;;;;;;;;;;14.23;100.00;100510.31;4954115;28;19934;-65
2021/09/17 07:34:06;;;;;;;;;;;;;;;14.22;100.00;100516.78;4954178;28;20424;-65
2021/09/17 07:36:32;;;;;;;;;;;;;;;14.29;100.00;100511.56;4953574;28;20401;-64
2021/09/17 07:38:59;;;;;;;;;;;;;;;14.41;100.00;100504.03;4953971;28;19985;-65
2021/09/17 07:41:26;;;;;;;;;;;;;;;14.54;100.00;100509.97;4953828;29;19926;-64
2021/09/17 07:43:52;;;;;;;;;;;;;;;14.57;100.00;100498.72;4952820;29;20365;-64
2021/09/17 07:46:18;;;;;;;;;;;;;;;14.72;100.00;100495.47;4953657;28;19966;-64
2021/09/17 07:48:45;;;;;;;;;;;;;;;14.84;100.00;100498.81;4953676;28;19948;-64
2021/09/17 07:51:11;;;;;;;;;;;;;;;15.05;100.00;100499.31;4953919;28;19926;-64
2021/09/17 07:53:37;;;;;;;;;;;;;;;15.17;100.00;100496.34;4953694;29;19948;-65
2021/09/17 07:56:05;;;;;;;;;;;;;;;15.14;100.00;100500.25;4953697;28;20040;-64
2021/09/17 07:58:31;;;;;;;;;;;;;;;15.06;100.00;100492.84;4953656;28;19961;-63
2021/09/17 08:00:57;;;;;;;;;;;;;;;15.20;100.00;100505.06;4953752;28;20040;-65
2021/09/17 08:03:29;;;;;;;;;;;;;;;15.21;100.00;100506.78;4952418;29;20025;-64
2021/09/17 08:05:55;;;;;;;;;;;;;;;15.23;100.00;100509.34;4952214;29;20369;-64
2021/09/17 08:08:21;;;;;;;;;;;;;;;15.21;100.00;100506.78;4953847;28;20021;-64
2021/09/17 08:10:48;;;;;;;;;;;;;;;15.24;100.00;100505.59;4953456;29;19973;-64
2021/09/17 08:13:15;;;;;;;;;;;;;;;15.40;100.00;100511.16;4953560;29;20453;-64
2021/09/17 08:15:41;;;;;;;;;;;;;;;15.48;100.00;100506.78;4953646;28;20469;-63
2021/09/17 08:18:08;;;;;;;;;;;;;;;15.50;100.00;100508.34;4953325;28;20029;-64
2021/09/17 08:20:34;;;;;;;;;;;;;;;15.53;100.00;100504.41;4953728;28;19967;-64
2021/09/17 08:23:01;;;;;;;;;;;;;;;15.50;100.00;100510.19;4953485;28;19933;-64
2021/09/17 08:25:27;;;;;;;;;;;;;;;15.56;100.00;100512.28;4953622;28;20021;-65
2021/09/17 08:27:53;;;;;;;;;;;;;;;15.60;100.00;100510.09;4953077;28;19977;-64
2021/09/17 08:30:21;;;;;;;;;;;;;;;15.50;100.00;100508.34;4953449;28;20043;-64
2021/09/17 08:32:48;;;;;;;;;;;;;;;15.48;100.00;100506.78;4953472;28;20389;-64
2021/09/17 08:35:14;;;;;;;;;;;;;;;15.48;100.00;100513.09;4953129;28;19926;-64
2021/09/17 08:37:41;;;;;;;;;;;;;;;15.65;100.00;100519.53;4952060;28;19950;-64
2021/09/17 08:40:09;;;;;;;;;;;;;;;15.80;100.00;100519.78;4953135;28;20026;-64
2021/09/17 08:42:37;;;;;;;;;;;;;;;15.65;100.00;100515.94;4953425;28;19927;-64
2021/09/17 08:45:04;;;;;;;;;;;;;;;15.68;100.00;100529.28;4951894;29;19974;-64
2021/09/17 08:47:32;;;;;;;;;;;;;;;15.90;100.00;100526.00;4953324;28;19934;-64
2021/09/17 08:49:59;;;;;;;;;;;;;;;15.95;100.00;100525.50;4953435;28;20310;-64
2021/09/17 08:52:26;;;;;;;;;;;;;;;16.10;100.00;100525.75;4953164;28;19930;-64
2021/09/17 08:54:52;;;;;;;;;;;;;;;16.16;100.00;100524.22;4953187;28;19933;-64
2021/09/17 08:57:18;;;;;;;;;;;;;;;16.14;100.00;100527.13;4953243;28;20025;-64
2021/09/17 08:59:44;;;;;;;;;;;;;;;16.21;100.00;100532.81;4955166;28;20196;-64
2021/09/17 09:02:21;;;;;;;;;;;;;;;16.17;100.00;100525.94;4953063;28;20338;-64
2021/09/17 09:04:54;;;;;;;;;;;;;;;16.03;100.00;100535.63;4953170;28;20385;-64
2021/09/17 09:07:26;;;;;;;;;;;;;;;15.97;100.00;100536.31;4952919;28;20037;-64
2021/09/17 09:09:52;;;;;;;;;;;;;;;15.90;100.00;100539.69;4953413;28;20033;-64
2021/09/17 09:12:18;;;;;;;;;;;;;;;16.02;100.00;100536.66;4956793;28;20042;-64
2021/09/17 09:14:45;;;;;;;;;;;;;;;16.06;100.00;100533.44;4956453;28;20018;-64
2021/09/17 09:17:11;;;;;;;;;;;;;;;16.11;100.00;100540.28;4956439;28;20025;-64
2021/09/17 09:19:38;;;;;;;;;;;;;;;16.35;100.00;100545.00;4956578;29;19933;-64
2021/09/17 09:22:11;;;;;;;;;;;;;;;16.35;100.00;100545.00;4956549;28;20025;-64
2021/09/17 09:24:39;;;;;;;;;;;;;;;16.51;100.00;100533.22;4956661;28;19930;-64
2021/09/17 09:27:07;;;;;;;;;;;;;;;16.40;100.00;100545.34;4955686;28;19927;-64
2021/09/17 09:29:34;;;;;;;;;;;;;;;16.27;100.00;100529.38;4956481;28;20034;-64
2021/09/17 09:32:00;;;;;;;;;;;;;;;15.99;100.00;100531.50;4956611;28;19953;-64
2021/09/17 09:34:41;;;;;;;;;;;;;;;15.53;100.00;100549.03;4956403;28;19934;-65
2021/09/17 09:37:07;;;;;;;;;;;;;;;15.31;100.00;100552.31;4955669;28;20034;-64
2021/09/17 09:39:51;;;;;;;;;;;;;;;15.22;100.00;100562.34;4956365;28;20018;-64
2021/09/17 09:42:18;;;;;;;;;;;;;;;15.22;100.00;100559.59;4956025;28;20029;-64
2021/09/17 09:45:05;;;;;;;;;;;;;;;15.17;100.00;100554.59;4956149;28;19961;-64
2021/09/17 09:47:32;;;;;;;;;;;;;;;15.22;100.00;100562.34;4955993;28;20026;-64
2021/09/17 09:50:03;;;;;;;;;;;;;;;15.22;100.00;100554.13;4955897;28;20400;-64
2021/09/17 09:52:30;;;;;;;;;;;;;;;15.33;100.00;100550.28;4956207;28;20116;-64
2021/09/17 09:54:58;;;;;;;;;;;;;;;15.52;100.00;100558.25;4954556;29;19933;-64
2021/09/17 09:57:25;;;;;;;;;;;;;;;15.54;100.00;100549.91;4955687;28;20301;-64
2021/09/17 09:59:52;;;;;;;;;;;;;;;15.44;100.00;100552.72;4955709;28;20025;-64
2021/09/17 10:02:23;;;;;;;;;;;;;;;15.56;100.00;100550.59;4955838;28;20361;-64
2021/09/17 10:04:50;;;;;;;;;;;;;;;15.46;100.00;100549.84;4955937;28;19927;-64
2021/09/17 10:07:18;;;;;;;;;;;;;;;15.53;100.00;100551.78;4955506;28;20021;-64
2021/09/17 10:09:44;;;;;;;;;;;;;;;15.60;100.00;100553.88;4955602;28;20368;-64
2021/09/17 10:12:13;;;;;;;;;;;;;;;15.63;100.00;100548.06;4955436;28;20030;-65
2021/09/17 10:14:41;;;;;;;;;;;;;;;15.73;100.00;100552.41;4955552;29;19932;-64
2021/09/17 10:17:10;;;;;;;;;;;;;;;15.68;100.00;100545.72;4954798;28;20381;-64
2021/09/17 10:19:36;;;;;;;;;;;;;;;15.50;100.00;100548.50;4955632;28;20013;-64
2021/09/17 10:22:03;;;;;;;;;;;;;;;15.53;100.00;100559.97;4954246;28;20033;-64
2021/09/17 10:24:31;;;;;;;;;;;;;;;15.46;100.00;100561.66;4955266;28;20013;-64
2021/09/17 10:26:58;;;;;;;;;;;;;;;15.36;100.00;100563.63;4954975;28;19927;-64
2021/09/17 10:29:31;;;;;;;;;;;;;;;15.23;100.00;100567.63;4955071;28;20373;-64
2021/09/17 10:32:00;;;;;;;;;;;;;;;15.19;100.00;100570.84;4955317;28;19934;-64
2021/09/17 10:34:30;;;;;;;;;;;;;;;15.14;100.00;100568.59;4955176;28;20312;-64
2021/09/17 10:36:56;;;;;;;;;;;;;;;15.17;100.00;100571.00;4954816;28;20025;-64
2021/09/17 10:39:23;;;;;;;;;;;;;;;15.16;100.00;100574.75;4954943;28;19930;-64
2021/09/17 10:42:06;;;;;;;;;;;;;;;15.19;100.00;100568.09;4954949;28;19926;-64
2021/09/17 10:44:53;;;;;;;;;;;;;;;15.25;100.00;100562.00;4955204;28;20313;-64
2021/09/17 10:47:35;;;;;;;;;;;;;;;15.41;100.00;100561.28;4954581;28;20445;-64
2021/09/17 10:50:05;;;;;;;;;;;;;;;15.39;100.00;100564.16;4954762;29;20021;-64
2021/09/17 10:52:40;;;;;;;;;;;;;;;15.34;100.00;100557.44;4956964;28;22710;-64
2021/09/17 10:55:06;;;;;;;;;;;;;;;15.23;100.00;100556.72;4954979;28;20385;-64
2021/09/17 10:57:33;;;;;;;;;;;;;;;15.10;100.00;100553.53;4954628;28;19969;-64
2021/09/17 11:00:00;;;;;;;;;;;;;;;15.07;100.00;100554.69;4954910;28;20033;-64
2021/09/17 11:02:40;;;;;;;;;;;;;;;15.23;100.00;100569.50;4954784;28;20357;-64
2021/09/17 11:05:16;;;;;;;;;;;;;;;15.37;100.00;100579.03;4954458;28;19926;-65
2021/09/17 11:07:42;;;;;;;;;;;;;;;15.42;100.00;100579.41;4954331;28;20381;-64
2021/09/17 11:10:24;;;;;;;;;;;;;;;15.49;100.00;100580.47;4954098;28;19926;-64
2021/09/17 11:12:50;;;;;;;;;;;;;;;15.42;100.00;100573.94;4954327;28;20021;-65
2021/09/17 11:15:18;;;;;;;;;;;;;;;15.36;100.00;100580.03;4953956;28;20013;-65
2021/09/17 11:17:46;;;;;;;;;;;;;;;15.27;100.00;100580.97;4954122;28;20111;-64
2021/09/17 11:20:14;;;;;;;;;;;;;;;15.14;100.00;100585.00;4954025;28;19926;-64
2021/09/17 11:22:51;;;;;;;;;;;;;;;14.95;100.00;100582.41;4953053;29;19962;-64
2021/09/17 11:25:26;;;;;;;;;;;;;;;14.94;100.00;100576.09;4954271;28;20402;-64
2021/09/17 11:27:52;;;;;;;;;;;;;;;15.10;100.00;100580.88;4953662;28;19952;-64
2021/09/17 11:30:22;;;;;;;;;;;;;;;15.31;100.00;100565.97;4953986;28;20397;-64
2021/09/17 11:32:48;;;;;;;;;;;;;;;15.48;100.00;100575.16;4953719;28;19933;-64
2021/09/17 11:35:14;;;;;;;;;;;;;;;15.51;100.00;100572.97;4954041;28;20025;-64
2021/09/17 11:37:48;;;;;;;;;;;;;;;15.43;100.00;100567.41;4953501;28;19930;-64
2021/09/17 11:40:14;;;;;;;;;;;;;;;15.45;100.00;100573.59;4953955;28;20469;-64
2021/09/17 11:42:40;;;;;;;;;;;;;;;15.46;100.00;100571.72;4953980;28;20263;-64
2021/09/17 11:45:14;;;;;;;;;;;;;;;15.43;100.00;100577.50;4953802;28;19969;-64
2021/09/17 11:47:45;;;;;;;;;;;;;;;15.53;100.00;100564.59;4952710;28;19933;-64
2021/09/17 11:50:13;;;;;;;;;;;;;;;15.75;100.00;100565.91;4953711;28;20380;-64
2021/09/17 11:52:41;;;;;;;;;;;;;;;15.91;100.00;100565.16;4954240;28;19981;-64
2021/09/17 11:55:10;;;;;;;;;;;;;;;16.04;100.00;100553.78;4953728;28;20379;-64
2021/09/17 11:57:39;;;;;;;;;;;;;;;16.30;100.00;100550.97;4954105;28;19931;-64
2021/09/17 12:00:06;;;;;;;;;;;;;;;16.37;100.00;100552.00;4953724;28;20310;-64
2021/09/17 12:02:32;;;;;;;;;;;;;;;16.65;100.00;100553.59;4953598;28;20376;-64
2021/09/17 12:05:01;;;;;;;;;;;;;;;16.74;100.00;100556.22;4953760;28;19926;-64
2021/09/17 12:07:28;;;;;;;;;;;;;;;16.90;100.00;100555.41;4953176;28;20374;-64
2021/09/17 12:09:55;;;;;;;;;;;;;;;17.05;100.00;100550.09;4953718;28;19998;-64
2021/09/17 12:12:31;;;;;;;;;;;;;;;16.65;100.00;100553.59;4952158;29;19937;-64
2021/09/17 12:14:57;;;;;;;;;;;;;;;16.33;100.00;100552.53;4953619;28;20034;-64
2021/09/17 12:17:24;;;;;;;;;;;;;;;16.14;100.00;100550.91;4953471;28;19926;-64
2021/09/17 12:19:54;;;;;;;;;;;;;;;16.06;100.00;100552.59;4953556;29;19926;-64
2021/09/17 12:22:28;;;;;;;;;;;;;;;16.17;100.00;100548.69;4953556;28;20009;-64
2021/09/17 12:25:01;;;;;;;;;;;;;;;16.31;100.00;100549.94;4953563;29;19966;-64
2021/09/17 12:27:29;;;;;;;;;;;;;;;16.37;100.00;100551.16;4953354;28;20017;-64
2021/09/17 12:29:56;;;;;;;;;;;;;;;16.49;100.00;100547.09;4952203;29;19933;-64
2021/09/17 12:32:23;;;;;;;;;;;;;;;16.56;100.00;100550.84;4953647;29;19941;-64